createdAt,value
2023-07-15T00:01:33.294Z,1.83
2023-07-15T00:04:00.275Z,1.83
2023-07-15T00:06:28.286Z,1.52
2023-07-15T00:08:56.925Z,2.13
2023-07-15T00:11:44.395Z,1.30
2023-07-15T00:14:22.912Z,1.83
2023-07-15T00:16:53.508Z,1.50
2023-07-15T00:19:20.862Z,1.58
2023-07-15T00:21:49.230Z,1.50
2023-07-15T00:24:16.524Z,1.53
2023-07-15T00:26:43.671Z,1.35
2023-07-15T00:29:10.529Z,1.63
2023-07-15T00:31:38.084Z,1.58
2023-07-15T00:34:06.311Z,1.55
2023-07-15T00:36:34.539Z,1.63
2023-07-15T00:39:01.639Z,1.17
2023-07-15T00:41:31.751Z,1.25
2023-07-15T00:44:02.161Z,1.35
2023-07-15T00:46:39.788Z,1.40
2023-07-15T00:49:36.312Z,1.10
2023-07-15T00:52:15.530Z,1.42
2023-07-15T00:54:52.346Z,1.00
2023-07-15T00:57:19.836Z,1.30
2023-07-15T00:59:49.213Z,1.05
2023-07-15T01:02:17.089Z,1.33
2023-07-15T01:04:44.167Z,1.00
2023-07-15T01:07:11.050Z,1.17
2023-07-15T01:09:38.014Z,1.10
2023-07-15T01:12:06.214Z,1.17
2023-07-15T01:14:33.186Z,1.23
2023-07-15T01:17:00.115Z,1.27
2023-07-15T01:19:28.568Z,1.35
2023-07-15T01:21:56.782Z,1.20
2023-07-15T01:24:27.363Z,1.25
2023-07-15T01:27:03.994Z,1.10
2023-07-15T01:29:30.866Z,1.17
2023-07-15T01:31:57.835Z,1.30
2023-07-15T01:34:24.728Z,1.10
2023-07-15T01:36:52.412Z,1.00
2023-07-15T01:39:19.427Z,1.03
2023-07-15T01:41:46.304Z,0.90
2023-07-15T01:44:14.125Z,1.20
2023-07-15T01:46:41.466Z,1.20
2023-07-15T01:49:08.890Z,1.02
2023-07-15T01:51:39.049Z,1.23
2023-07-15T01:54:06.216Z,1.27
2023-07-15T01:56:33.344Z,1.00
2023-07-15T01:59:00.384Z,0.90
2023-07-15T02:01:27.866Z,1.15
2023-07-15T02:03:55.448Z,1.37
2023-07-15T02:06:23.419Z,1.00
2023-07-15T02:08:50.538Z,1.13
2023-07-15T02:11:17.487Z,1.00
2023-07-15T02:13:44.408Z,1.30
2023-07-15T02:16:11.475Z,1.07
2023-07-15T02:18:38.502Z,0.93
2023-07-15T02:21:05.871Z,1.10
2023-07-15T02:23:33.014Z,1.00
2023-07-15T02:25:59.997Z,1.27
2023-07-15T02:28:28.611Z,1.10
2023-07-15T02:30:56.953Z,1.10
2023-07-15T02:33:25.062Z,1.00
2023-07-15T02:35:52.400Z,1.00
2023-07-15T02:38:19.796Z,1.15
2023-07-15T02:40:50.355Z,1.03
2023-07-15T02:43:17.410Z,0.90
2023-07-15T02:45:44.304Z,1.55
2023-07-15T02:48:11.119Z,0.90
2023-07-15T02:50:38.024Z,0.88
2023-07-15T02:53:04.832Z,0.83
2023-07-15T02:55:31.871Z,1.23
2023-07-15T02:57:59.438Z,1.05
2023-07-15T03:00:26.398Z,1.15
2023-07-15T03:02:53.462Z,1.20
2023-07-15T03:05:20.895Z,1.10
2023-07-15T03:07:48.913Z,1.17
2023-07-15T03:10:16.628Z,1.02
2023-07-15T03:12:46.289Z,1.35
2023-07-15T03:15:13.102Z,1.08
2023-07-15T03:17:39.967Z,1.33
2023-07-15T03:20:16.277Z,1.10
2023-07-15T03:22:44.136Z,1.00
2023-07-15T03:25:11.269Z,1.20
2023-07-15T03:27:38.866Z,1.30
2023-07-15T03:30:09.946Z,1.40
2023-07-15T03:32:38.186Z,1.48
2023-07-15T03:35:05.903Z,1.27
2023-07-15T03:37:34.505Z,1.20
2023-07-15T03:40:01.464Z,1.02
2023-07-15T03:42:29.138Z,1.10
2023-07-15T03:44:56.047Z,1.40
2023-07-15T03:47:22.973Z,1.30
2023-07-15T03:49:49.888Z,1.13
2023-07-15T03:52:16.748Z,1.33
2023-07-15T03:54:44.582Z,1.20
2023-07-15T03:57:12.282Z,1.55
2023-07-15T03:59:39.937Z,1.52
2023-07-15T04:02:07.423Z,1.35
2023-07-15T04:04:34.379Z,1.23
2023-07-15T04:07:02.334Z,1.17
2023-07-15T04:09:29.582Z,1.35
2023-07-15T04:11:57.433Z,1.60
2023-07-15T04:14:24.422Z,1.15
2023-07-15T04:16:51.280Z,1.40
2023-07-15T04:19:18.194Z,1.40
2023-07-15T04:21:45.174Z,1.42
2023-07-15T04:24:12.141Z,1.40
2023-07-15T04:26:38.951Z,1.35
2023-07-15T04:29:07.608Z,1.40
2023-07-15T04:31:34.587Z,1.40
2023-07-15T04:34:01.569Z,1.73
2023-07-15T04:36:28.557Z,1.48
2023-07-15T04:38:55.668Z,1.55
2023-07-15T04:41:22.773Z,1.40
2023-07-15T04:43:49.655Z,1.55
2023-07-15T04:46:16.805Z,1.20
2023-07-15T04:48:44.687Z,1.50
2023-07-15T04:51:11.612Z,1.50
2023-07-15T04:53:44.173Z,1.35
2023-07-15T04:56:12.005Z,1.37
2023-07-15T04:58:40.129Z,1.20
2023-07-15T05:01:07.053Z,1.30
2023-07-15T05:03:34.947Z,1.50
2023-07-15T05:06:02.285Z,1.55
2023-07-15T05:08:29.343Z,1.70
2023-07-15T05:10:56.762Z,1.58
2023-07-15T05:13:23.675Z,1.60
2023-07-15T05:15:50.658Z,1.67
2023-07-15T05:18:17.672Z,1.20
2023-07-15T05:20:44.860Z,1.50
2023-07-15T05:23:11.827Z,1.52
2023-07-15T05:25:38.955Z,1.70
2023-07-15T05:28:06.460Z,1.73
2023-07-15T05:30:37.074Z,1.60
2023-07-15T05:33:05.018Z,1.13
2023-07-15T05:35:32.234Z,1.38
2023-07-15T05:37:59.193Z,1.42
2023-07-15T05:40:26.092Z,1.45
2023-07-15T05:42:52.950Z,1.35
2023-07-15T05:45:19.917Z,1.40
2023-07-15T05:47:46.802Z,1.67
2023-07-15T05:50:13.704Z,1.50
2023-07-15T05:52:40.585Z,1.10
2023-07-15T05:55:07.912Z,1.45
2023-07-15T05:57:34.814Z,1.50
2023-07-15T06:00:02.310Z,1.40
2023-07-15T06:02:29.289Z,1.50
2023-07-15T06:04:56.204Z,1.52
2023-07-15T06:07:23.066Z,1.17
2023-07-15T06:09:53.507Z,1.47
2023-07-15T06:12:20.443Z,1.05
2023-07-15T06:14:47.294Z,1.13
2023-07-15T06:17:14.340Z,1.10
2023-07-15T06:19:41.220Z,1.17
2023-07-15T06:22:08.202Z,0.93
2023-07-15T06:24:35.551Z,1.00
2023-07-15T06:27:02.482Z,0.95
2023-07-15T06:29:29.691Z,0.80
2023-07-15T06:31:56.516Z,1.00
2023-07-15T06:34:23.556Z,0.83
2023-07-15T06:36:52.614Z,0.95
2023-07-15T06:39:21.660Z,0.63
2023-07-15T06:41:48.554Z,0.60
2023-07-15T06:44:15.268Z,0.93
2023-07-15T06:46:42.220Z,0.60
2023-07-15T06:49:09.198Z,1.10
2023-07-15T06:51:36.185Z,0.77
2023-07-15T06:54:03.128Z,0.70
2023-07-15T06:56:30.333Z,0.90
2023-07-15T06:58:57.232Z,0.40
2023-07-15T07:01:24.083Z,0.45
2023-07-15T07:03:51.262Z,0.52
2023-07-15T07:06:18.190Z,0.50
2023-07-15T07:08:45.267Z,0.47
2023-07-15T07:11:12.371Z,0.40
2023-07-15T07:13:39.643Z,0.63
2023-07-15T07:16:06.751Z,0.50
2023-07-15T07:18:33.883Z,0.50
2023-07-15T07:21:01.197Z,0.60
2023-07-15T07:23:28.452Z,0.50
2023-07-15T07:25:55.548Z,0.60
2023-07-15T07:28:27.226Z,0.60
2023-07-15T07:30:54.912Z,0.30
2023-07-15T07:33:21.901Z,0.30
2023-07-15T07:35:48.828Z,0.40
2023-07-15T07:38:15.759Z,0.40
2023-07-15T07:40:47.863Z,0.35
2023-07-15T07:43:14.882Z,0.30
2023-07-15T07:45:41.761Z,0.45
2023-07-15T07:48:08.731Z,0.35
2023-07-15T07:50:36.882Z,0.40
2023-07-15T07:53:04.065Z,0.30
2023-07-15T07:55:31.253Z,0.28
2023-07-15T07:57:58.119Z,0.50
2023-07-15T08:00:25.097Z,0.50
2023-07-15T08:02:52.079Z,0.50
2023-07-15T08:05:20.062Z,0.65
2023-07-15T08:07:47.172Z,0.43
2023-07-15T08:10:14.281Z,0.40
2023-07-15T08:12:41.274Z,0.30
2023-07-15T08:15:09.441Z,0.40
2023-07-15T08:17:37.666Z,0.75
2023-07-15T08:20:05.370Z,0.55
2023-07-15T08:22:32.420Z,0.50
2023-07-15T08:24:59.408Z,0.60
2023-07-15T08:27:26.398Z,0.60
2023-07-15T08:29:53.378Z,0.60
2023-07-15T08:32:20.367Z,0.52
2023-07-15T08:35:05.338Z,0.50
2023-07-15T08:37:33.515Z,0.47
2023-07-15T08:40:00.579Z,0.60
2023-07-15T08:42:28.785Z,0.80
2023-07-15T08:44:56.511Z,0.50
2023-07-15T08:47:25.505Z,0.60
2023-07-15T08:49:54.987Z,0.65
2023-07-15T08:52:24.910Z,0.68
2023-07-15T08:54:53.522Z,0.60
2023-07-15T08:57:23.664Z,0.60
2023-07-15T08:59:57.005Z,1.00
2023-07-15T09:02:24.363Z,0.88
2023-07-15T09:04:51.885Z,1.00
2023-07-15T09:07:29.049Z,0.70
2023-07-15T09:09:56.195Z,0.98
2023-07-15T09:12:24.569Z,0.93
2023-07-15T09:14:54.585Z,1.45
2023-07-15T09:17:23.230Z,0.88
2023-07-15T09:19:50.672Z,0.88
2023-07-15T09:22:19.964Z,0.82
2023-07-15T09:24:47.133Z,0.93
2023-07-15T09:27:14.012Z,1.00
2023-07-15T09:29:41.494Z,0.70
2023-07-15T09:32:09.773Z,0.98
2023-07-15T09:34:41.858Z,0.80
2023-07-15T09:37:09.490Z,0.90
2023-07-15T09:39:37.922Z,0.80
2023-07-15T09:42:08.721Z,0.70
2023-07-15T09:44:46.762Z,0.90
2023-07-15T09:47:13.995Z,0.90
2023-07-15T09:49:41.091Z,0.77
2023-07-15T09:52:08.185Z,1.20
2023-07-15T09:54:36.482Z,0.93
2023-07-15T09:57:14.769Z,1.30
2023-07-15T09:59:50.192Z,1.20
2023-07-15T10:02:28.474Z,0.80
2023-07-15T10:05:04.345Z,0.70
2023-07-15T10:07:32.997Z,1.40
2023-07-15T10:10:00.574Z,0.88
2023-07-15T10:12:29.377Z,1.00
2023-07-15T10:14:57.944Z,1.00
2023-07-15T10:17:25.084Z,0.70
2023-07-15T10:19:53.896Z,0.80
2023-07-15T10:22:25.242Z,0.93
2023-07-15T10:24:58.101Z,1.10
2023-07-15T10:27:29.254Z,0.60
2023-07-15T10:30:19.267Z,0.60
2023-07-15T10:33:07.491Z,0.90
2023-07-15T10:35:41.579Z,0.90
2023-07-15T10:38:24.821Z,0.60
2023-07-15T10:40:54.115Z,0.80
2023-07-15T10:43:42.518Z,0.60
2023-07-15T10:46:12.291Z,0.93
2023-07-15T10:48:40.308Z,0.60
2023-07-15T10:51:10.462Z,0.85
2023-07-15T10:53:38.068Z,0.90
2023-07-15T10:56:11.887Z,0.60
2023-07-15T10:58:41.738Z,0.52
2023-07-15T11:01:14.070Z,0.70
2023-07-15T11:03:43.245Z,0.70
2023-07-15T11:06:11.463Z,0.93
2023-07-15T11:08:42.315Z,0.50
2023-07-15T11:11:14.313Z,0.68
2023-07-15T11:13:43.313Z,0.65
2023-07-15T11:16:10.508Z,0.63
2023-07-15T11:18:37.397Z,0.68
2023-07-15T11:21:04.609Z,0.80
2023-07-15T11:23:32.800Z,0.60
2023-07-15T11:26:13.660Z,0.68
2023-07-15T11:28:51.724Z,0.70
2023-07-15T11:31:27.424Z,0.77
2023-07-15T11:33:55.594Z,0.70
2023-07-15T11:36:22.546Z,1.05
2023-07-15T11:38:49.561Z,0.47
2023-07-15T11:41:16.630Z,0.60
2023-07-15T11:43:43.759Z,0.55
2023-07-15T11:46:10.841Z,0.60
2023-07-15T11:48:38.191Z,0.70
2023-07-15T11:51:09.279Z,0.57
2023-07-15T11:53:39.056Z,0.70
2023-07-15T11:56:09.861Z,1.02
2023-07-15T11:58:40.346Z,0.68
2023-07-15T12:01:07.810Z,0.70
2023-07-15T12:03:35.908Z,0.80
2023-07-15T12:06:03.262Z,0.70
2023-07-15T12:08:30.179Z,0.60
2023-07-15T12:10:58.446Z,0.88
2023-07-15T12:13:27.439Z,0.60
2023-07-15T12:15:54.535Z,0.65
2023-07-15T12:18:21.447Z,0.60
2023-07-15T12:20:48.501Z,0.60
2023-07-15T12:23:15.790Z,0.80
2023-07-15T12:25:42.788Z,0.50
2023-07-15T12:28:09.799Z,0.70
2023-07-15T12:30:36.818Z,0.65
2023-07-15T12:33:03.961Z,0.50
2023-07-15T12:35:31.039Z,0.80
2023-07-15T12:37:57.956Z,0.93
2023-07-15T12:40:25.064Z,0.50
2023-07-15T12:42:51.953Z,0.40
2023-07-15T12:45:19.103Z,0.60
2023-07-15T12:47:46.184Z,0.68
2023-07-15T12:50:13.154Z,0.80
2023-07-15T12:52:40.085Z,0.75
2023-07-15T12:55:07.364Z,0.60
2023-07-15T12:57:34.370Z,0.70
2023-07-15T13:00:01.306Z,0.65
2023-07-15T13:02:28.365Z,0.63
2023-07-15T13:04:55.403Z,0.68
2023-07-15T13:07:23.159Z,0.60
2023-07-15T13:09:50.190Z,0.52
2023-07-15T13:12:17.171Z,0.40
2023-07-15T13:14:44.255Z,0.47
2023-07-15T13:17:11.153Z,0.50
2023-07-15T13:19:38.160Z,0.98
2023-07-15T13:22:05.463Z,0.40
2023-07-15T13:24:32.575Z,0.40
2023-07-15T13:26:59.518Z,0.50
2023-07-15T13:29:26.653Z,0.30
2023-07-15T13:31:53.575Z,0.47
2023-07-15T13:34:20.668Z,0.40
2023-07-15T13:36:47.679Z,0.60
2023-07-15T13:39:37.407Z,0.50
2023-07-15T13:42:09.259Z,0.60
2023-07-15T13:44:36.561Z,0.50
2023-07-15T13:47:05.220Z,0.40
2023-07-15T13:49:32.962Z,0.45
2023-07-15T13:52:00.661Z,0.60
2023-07-15T13:54:28.108Z,0.55
2023-07-15T13:56:55.774Z,0.50
2023-07-15T13:59:22.765Z,0.52
2023-07-15T14:01:50.426Z,0.40
2023-07-15T14:04:17.591Z,0.60
2023-07-15T14:06:48.100Z,0.60
2023-07-15T14:09:16.070Z,0.95
2023-07-15T14:11:46.106Z,0.60
2023-07-15T14:14:16.781Z,0.60
2023-07-15T14:16:44.015Z,0.85
2023-07-15T14:19:11.085Z,0.55
2023-07-15T14:21:38.218Z,0.60
2023-07-15T14:24:06.684Z,0.68
2023-07-15T14:26:35.008Z,0.50
2023-07-15T14:29:02.575Z,0.65
2023-07-15T14:31:29.689Z,0.52
2023-07-15T14:33:56.713Z,0.85
2023-07-15T14:36:24.123Z,0.50
2023-07-15T14:38:51.413Z,0.52
2023-07-15T14:41:18.653Z,0.70
2023-07-15T14:43:46.019Z,0.60
2023-07-15T14:46:13.078Z,0.57
2023-07-15T14:48:41.285Z,0.70
2023-07-15T14:51:08.492Z,0.57
2023-07-15T14:53:35.406Z,0.60
2023-07-15T14:56:03.343Z,0.60
2023-07-15T14:58:30.365Z,0.50
2023-07-15T15:00:57.553Z,0.40
2023-07-15T15:03:24.891Z,0.65
2023-07-15T15:05:52.038Z,0.50
2023-07-15T15:08:19.128Z,0.60
2023-07-15T15:10:46.121Z,0.60
2023-07-15T15:13:13.268Z,0.47
2023-07-15T15:15:40.981Z,0.50
2023-07-15T15:18:08.128Z,0.40
2023-07-15T15:20:35.276Z,1.00
2023-07-15T15:23:02.656Z,0.60
2023-07-15T15:25:29.564Z,0.47
2023-07-15T15:27:56.479Z,0.40
2023-07-15T15:30:23.592Z,0.52
2023-07-15T15:32:50.756Z,0.80
2023-07-15T15:35:17.891Z,0.55
2023-07-15T15:37:44.831Z,0.40
2023-07-15T15:40:11.863Z,0.75
2023-07-15T15:42:41.172Z,0.93
2023-07-15T15:45:09.474Z,0.57
2023-07-15T15:47:36.436Z,0.40
2023-07-15T15:50:03.794Z,0.40
2023-07-15T15:52:30.953Z,0.50
2023-07-15T15:54:57.982Z,0.47
2023-07-15T15:57:25.285Z,0.30
2023-07-15T15:59:52.478Z,0.47
2023-07-15T16:02:19.550Z,0.28
2023-07-15T16:04:46.620Z,0.40
2023-07-15T16:07:13.555Z,0.60
2023-07-15T16:09:40.489Z,0.68
2023-07-15T16:12:07.786Z,0.30
2023-07-15T16:14:34.650Z,0.50
2023-07-15T16:17:01.698Z,0.50
2023-07-15T16:19:28.851Z,0.40
2023-07-15T16:21:55.836Z,0.30
2023-07-15T16:24:22.858Z,0.30
2023-07-15T16:26:49.880Z,0.30
2023-07-15T16:29:16.730Z,0.40
2023-07-15T16:31:43.694Z,0.30
2023-07-15T16:34:10.854Z,0.30
2023-07-15T16:36:37.936Z,0.22
2023-07-15T16:39:05.452Z,0.20
2023-07-15T16:41:32.423Z,0.20
2023-07-15T16:43:59.535Z,0.40
2023-07-15T16:46:26.593Z,0.47
2023-07-15T16:48:53.738Z,0.20
2023-07-15T16:51:20.720Z,0.40
2023-07-15T16:53:47.725Z,0.37
2023-07-15T16:56:14.728Z,0.30
2023-07-15T16:58:41.760Z,0.50
2023-07-15T17:01:08.720Z,0.30
2023-07-15T17:03:35.989Z,0.40
2023-07-15T17:06:03.148Z,0.35
2023-07-15T17:08:30.102Z,0.30
2023-07-15T17:10:57.116Z,0.30
2023-07-15T17:13:24.053Z,0.30
2023-07-15T17:15:51.021Z,0.35
2023-07-15T17:18:18.090Z,0.30
2023-07-15T17:20:45.129Z,0.35
2023-07-15T17:23:12.156Z,0.40
2023-07-15T17:25:40.426Z,0.55
2023-07-15T17:28:07.467Z,0.60
2023-07-15T17:30:34.591Z,0.38
2023-07-15T17:33:05.986Z,0.45
2023-07-15T17:35:33.193Z,0.47
2023-07-15T17:38:00.072Z,0.30
2023-07-15T17:40:27.073Z,0.40
2023-07-15T17:42:54.117Z,0.43
2023-07-15T17:45:21.022Z,0.50
2023-07-15T17:47:47.952Z,0.40
2023-07-15T17:50:14.927Z,0.40
2023-07-15T17:52:42.062Z,0.50
2023-07-15T17:55:21.533Z,0.38
2023-07-15T17:57:51.264Z,0.30
2023-07-15T18:00:18.483Z,0.50
2023-07-15T18:02:47.926Z,0.40
2023-07-15T18:05:14.945Z,0.60
2023-07-15T18:07:41.989Z,0.50
2023-07-15T18:10:09.607Z,0.40
2023-07-15T18:12:36.627Z,0.40
2023-07-15T18:15:03.828Z,0.50
2023-07-15T18:17:30.855Z,0.40
2023-07-15T18:19:57.943Z,0.55
2023-07-15T18:22:25.186Z,0.40
2023-07-15T18:24:53.336Z,0.50
2023-07-15T18:27:20.251Z,0.55
2023-07-15T18:29:47.380Z,0.20
2023-07-15T18:32:14.383Z,0.40
2023-07-15T18:34:41.500Z,0.50
2023-07-15T18:37:08.533Z,0.50
2023-07-15T18:39:35.768Z,0.50
2023-07-15T18:42:02.786Z,0.60
2023-07-15T18:44:30.257Z,0.50
2023-07-15T18:46:57.303Z,0.63
2023-07-15T18:49:24.723Z,0.52
2023-07-15T18:51:55.022Z,0.55
2023-07-15T18:54:21.977Z,0.40
2023-07-15T18:56:49.296Z,0.40
2023-07-15T18:59:16.288Z,0.43
2023-07-15T19:01:43.388Z,0.43
2023-07-15T19:04:11.013Z,0.30
2023-07-15T19:06:37.953Z,0.40
2023-07-15T19:09:04.901Z,0.50
2023-07-15T19:11:31.810Z,0.50
2023-07-15T19:13:58.952Z,0.40
2023-07-15T19:16:26.630Z,0.43
2023-07-15T19:18:53.842Z,0.50
2023-07-15T19:21:21.222Z,0.55
2023-07-15T19:23:48.106Z,0.65
2023-07-15T19:26:15.156Z,0.40
2023-07-15T19:28:42.245Z,0.52
2023-07-15T19:31:09.379Z,0.70
2023-07-15T19:33:37.026Z,0.45
2023-07-15T19:36:04.471Z,0.40
2023-07-15T19:38:31.770Z,0.50
2023-07-15T19:40:58.644Z,0.43
2023-07-15T19:43:25.681Z,0.40
2023-07-15T19:45:52.955Z,0.40
2023-07-15T19:48:19.888Z,0.50
2023-07-15T19:50:46.955Z,0.50
2023-07-15T19:53:13.950Z,0.40
2023-07-15T19:55:40.935Z,0.50
2023-07-15T19:58:08.037Z,0.30
2023-07-15T20:00:36.162Z,0.40
2023-07-15T20:03:03.093Z,0.40
2023-07-15T20:05:30.131Z,0.30
2023-07-15T20:07:57.092Z,0.50
2023-07-15T20:10:24.206Z,0.40
2023-07-15T20:12:51.089Z,0.50
2023-07-15T20:15:18.097Z,0.60
2023-07-15T20:17:45.118Z,0.50
2023-07-15T20:20:12.683Z,0.50
2023-07-15T20:22:39.726Z,0.43
2023-07-15T20:25:06.874Z,0.77
2023-07-15T20:27:35.582Z,0.60
2023-07-15T20:30:03.868Z,0.40
2023-07-15T20:32:30.912Z,0.50
2023-07-15T20:34:58.025Z,0.50
2023-07-15T20:37:24.940Z,0.50
2023-07-15T20:39:51.928Z,0.63
2023-07-15T20:42:18.888Z,0.80
2023-07-15T20:44:45.859Z,0.40
2023-07-15T20:47:12.909Z,0.70
2023-07-15T20:49:39.805Z,0.55
2023-07-15T20:52:09.480Z,0.77
2023-07-15T20:54:36.366Z,0.60
2023-07-15T20:57:03.642Z,0.70
2023-07-15T20:59:30.563Z,0.60
2023-07-15T21:01:57.888Z,0.70
2023-07-15T21:04:24.947Z,0.63
2023-07-15T21:06:51.933Z,0.70
2023-07-15T21:09:18.880Z,0.80
2023-07-15T21:11:45.744Z,0.63
2023-07-15T21:14:12.606Z,0.52
2023-07-15T21:16:39.430Z,0.60
2023-07-15T21:19:06.478Z,0.70
2023-07-15T21:21:33.363Z,0.60
2023-07-15T21:24:00.183Z,1.23
2023-07-15T21:26:27.036Z,0.75
2023-07-15T21:28:53.985Z,0.77
2023-07-15T21:31:20.849Z,0.63
2023-07-15T21:33:47.771Z,0.60
2023-07-15T21:36:14.920Z,0.60
2023-07-15T21:38:43.156Z,0.45
2023-07-15T21:41:10.388Z,0.80
2023-07-15T21:43:37.386Z,0.60
2023-07-15T21:46:04.566Z,0.60
2023-07-15T21:48:31.462Z,0.87
2023-07-15T21:51:01.839Z,0.50
2023-07-15T21:53:28.751Z,1.50
2023-07-15T21:55:56.514Z,0.70
2023-07-15T21:58:23.441Z,0.70
2023-07-15T22:00:50.370Z,0.70
2023-07-15T22:03:17.499Z,1.25
2023-07-15T22:05:47.574Z,0.68
2023-07-15T22:08:14.437Z,0.50
2023-07-15T22:10:41.300Z,0.82
2023-07-15T22:13:08.255Z,0.73
2023-07-15T22:15:35.216Z,0.52
2023-07-15T22:18:02.167Z,0.63
2023-07-15T22:20:28.946Z,0.95
2023-07-15T22:22:55.938Z,0.65
2023-07-15T22:25:23.082Z,0.80
2023-07-15T22:27:49.977Z,0.90
2023-07-15T22:30:16.925Z,0.43
2023-07-15T22:32:43.794Z,0.65
2023-07-15T22:35:10.698Z,0.70
2023-07-15T22:37:37.548Z,0.87
2023-07-15T22:40:04.743Z,0.80
2023-07-15T22:42:31.593Z,0.57
2023-07-15T22:44:58.468Z,0.60
2023-07-15T22:47:25.426Z,0.80
2023-07-15T22:49:52.354Z,0.60
2023-07-15T22:52:19.226Z,0.80
2023-07-15T22:54:46.093Z,0.55
2023-07-15T22:57:12.977Z,0.70
2023-07-15T22:59:39.835Z,0.73
2023-07-15T23:02:06.735Z,0.50
2023-07-15T23:04:33.690Z,0.70
2023-07-15T23:07:03.227Z,0.68
2023-07-15T23:09:30.267Z,0.73
2023-07-15T23:11:57.312Z,0.93
2023-07-15T23:14:24.224Z,0.70
2023-07-15T23:16:51.147Z,0.57
2023-07-15T23:19:18.080Z,0.55
2023-07-15T23:21:45.005Z,0.93
2023-07-15T23:24:11.940Z,0.57
2023-07-15T23:26:38.824Z,0.60
2023-07-15T23:29:05.862Z,0.65
2023-07-15T23:31:32.793Z,0.52
2023-07-15T23:33:59.697Z,0.63
2023-07-15T23:36:26.597Z,0.50
2023-07-15T23:38:53.426Z,0.70
2023-07-15T23:41:22.092Z,0.52
2023-07-15T23:43:50.782Z,0.80
2023-07-15T23:46:17.819Z,0.70
2023-07-15T23:48:44.961Z,0.70
2023-07-15T23:51:11.769Z,0.50
2023-07-15T23:53:38.606Z,0.95
2023-07-15T23:56:07.594Z,0.80
2023-07-15T23:58:34.626Z,0.82
